sensor_id;sensor_type;location;lat;lon;timestamp;pressure;altitude;pressure_sealevel;temperature;humidity
60375;BME280;70244;48.792;9.172;2024-02-15T05:15:30;97966.63;;;17.55;66.04
60375;BME280;70244;48.792;9.172;2024-02-15T05:18:01;97969.39;;;17.54;65.99
60375;BME280;70244;48.792;9.172;2024-02-15T05:21:14;97971.93;;;17.55;65.77
60375;BME280;70244;48.792;9.172;2024-02-15T05:23:44;97970.42;;;17.51;66.08
60375;BME280;70244;48.792;9.172;2024-02-15T05:26:15;97969.09;;;17.61;65.84
60375;BME280;70244;48.792;9.172;2024-02-15T05:28:46;97963.61;;;17.63;65.77
60375;BME280;70244;48.792;9.172;2024-02-15T05:31:18;97965.73;;;17.64;65.78
60375;BME280;70244;48.792;9.172;2024-02-15T05:33:47;97964.78;;;17.65;65.72
60375;BME280;70244;48.792;9.172;2024-02-15T05:36:20;97958.95;;;17.42;66.26
60375;BME280;70244;48.792;9.172;2024-02-15T05:38:51;97959.61;;;17.48;66.14
60375;BME280;70244;48.792;9.172;2024-02-15T05:41:20;97957.24;;;17.50;66.04
60375;BME280;70244;48.792;9.172;2024-02-15T05:43:50;97954.01;;;17.54;65.94
60375;BME280;70244;48.792;9.172;2024-02-15T05:46:21;97954.76;;;17.48;66.07
60375;BME280;70244;48.792;9.172;2024-02-15T05:48:52;97954.06;;;17.58;65.89
60375;BME280;70244;48.792;9.172;2024-02-15T05:51:22;97958.15;;;17.56;65.95
60375;BME280;70244;48.792;9.172;2024-02-15T05:53:53;97964.70;;;17.49;66.18
60375;BME280;70244;48.792;9.172;2024-02-15T05:56:24;97964.97;;;17.55;66.04
60375;BME280;70244;48.792;9.172;2024-02-15T05:58:54;97963.13;;;17.55;66.06
60375;BME280;70244;48.792;9.172;2024-02-15T06:01:25;97966.42;;;17.49;66.23
60375;BME280;70244;48.792;9.172;2024-02-15T06:03:56;97967.01;;;17.60;65.99
60375;BME280;70244;48.792;9.172;2024-02-15T06:06:27;97967.62;;;17.70;65.73
60375;BME280;70244;48.792;9.172;2024-02-15T06:08:57;97966.30;;;17.73;65.70
60375;BME280;70244;48.792;9.172;2024-02-15T06:11:28;97966.11;;;17.57;66.05
60375;BME280;70244;48.792;9.172;2024-02-15T06:13:59;97966.15;;;17.47;66.34
60375;BME280;70244;48.792;9.172;2024-02-15T06:16:29;97967.96;;;17.59;66.04
60375;BME280;70244;48.792;9.172;2024-02-15T06:19:00;97967.96;;;17.64;65.99
60375;BME280;70244;48.792;9.172;2024-02-15T06:21:31;97966.22;;;17.59;66.04
60375;BME280;70244;48.792;9.172;2024-02-15T06:24:02;97965.00;;;17.63;65.98
60375;BME280;70244;48.792;9.172;2024-02-15T06:26:32;97962.89;;;17.61;66.01
60375;BME280;70244;48.792;9.172;2024-02-15T06:29:03;97960.48;;;17.62;65.96
60375;BME280;70244;48.792;9.172;2024-02-15T06:31:34;97962.07;;;17.62;65.99
60375;BME280;70244;48.792;9.172;2024-02-15T06:34:04;97961.41;;;17.53;66.19
60375;BME280;70244;48.792;9.172;2024-02-15T06:36:39;97960.72;;;17.54;66.20
60375;BME280;70244;48.792;9.172;2024-02-15T06:39:06;97955.23;;;17.54;66.17
60375;BME280;70244;48.792;9.172;2024-02-15T06:41:37;97954.17;;;17.50;66.24
60375;BME280;70244;48.792;9.172;2024-02-15T06:44:07;97955.64;;;17.51;66.23
60375;BME280;70244;48.792;9.172;2024-02-15T06:46:38;97960.48;;;17.65;65.89
60375;BME280;70244;48.792;9.172;2024-02-15T06:49:09;97963.92;;;17.74;65.63
60375;BME280;70244;48.792;9.172;2024-02-15T06:51:39;97957.06;;;17.53;66.09
60375;BME280;70244;48.792;9.172;2024-02-15T06:54:10;97961.02;;;17.64;65.83
60375;BME280;70244;48.792;9.172;2024-02-15T06:56:41;97957.27;;;17.61;65.94
60375;BME280;70244;48.792;9.172;2024-02-15T06:59:12;97955.52;;;17.58;65.89
60375;BME280;70244;48.792;9.172;2024-02-15T07:01:42;97952.99;;;17.68;65.69
60375;BME280;70244;48.792;9.172;2024-02-15T07:04:13;97955.53;;;17.48;66.12
60375;BME280;70244;48.792;9.172;2024-02-15T07:06:43;97960.60;;;17.62;65.84
60375;BME280;70244;48.792;9.172;2024-02-15T07:09:14;97956.28;;;17.50;66.06
60375;BME280;70244;48.792;9.172;2024-02-15T07:11:45;97961.91;;;17.72;65.54
60375;BME280;70244;48.792;9.172;2024-02-15T07:14:16;97963.81;;;17.73;65.44
60375;BME280;70244;48.792;9.172;2024-02-15T07:16:47;97965.75;;;17.71;65.57
60375;BME280;70244;48.792;9.172;2024-02-15T07:19:17;97963.90;;;17.54;66.10
60375;BME280;70244;48.792;9.172;2024-02-15T07:21:48;97970.93;;;17.74;65.63
60375;BME280;70244;48.792;9.172;2024-02-15T07:24:18;97967.17;;;17.63;65.89
60375;BME280;70244;48.792;9.172;2024-02-15T07:26:49;97957.81;;;17.56;66.01
60375;BME280;70244;48.792;9.172;2024-02-15T07:29:20;97953.09;;;17.51;66.14
60375;BME280;70244;48.792;9.172;2024-02-15T07:31:51;97955.43;;;17.63;65.90
60375;BME280;70244;48.792;9.172;2024-02-15T07:34:21;97953.19;;;17.68;65.66
60375;BME280;70244;48.792;9.172;2024-02-15T07:36:52;97947.54;;;17.79;65.39
60375;BME280;70244;48.792;9.172;2024-02-15T07:39:23;97945.76;;;17.77;65.44
60375;BME280;70244;48.792;9.172;2024-02-15T07:41:54;97940.89;;;17.75;65.62
60375;BME280;70244;48.792;9.172;2024-02-15T07:44:24;97937.33;;;17.87;65.27
60375;BME280;70244;48.792;9.172;2024-02-15T07:46:55;97937.48;;;17.75;65.51
60375;BME280;70244;48.792;9.172;2024-02-15T07:49:26;97934.00;;;17.78;65.53
60375;BME280;70244;48.792;9.172;2024-02-15T07:51:56;97932.15;;;17.89;65.29
60375;BME280;70244;48.792;9.172;2024-02-15T07:54:27;97931.08;;;17.76;65.55
60375;BME280;70244;48.792;9.172;2024-02-15T07:56:58;97930.46;;;17.94;65.19
60375;BME280;70244;48.792;9.172;2024-02-15T07:59:28;97931.00;;;17.97;65.14
60375;BME280;70244;48.792;9.172;2024-02-15T08:01:59;97924.63;;;17.93;65.28
60375;BME280;70244;48.792;9.172;2024-02-15T08:04:30;97925.30;;;17.82;65.48
60375;BME280;70244;48.792;9.172;2024-02-15T08:07:01;97924.85;;;17.84;65.58
60375;BME280;70244;48.792;9.172;2024-02-15T08:09:31;97922.33;;;17.79;65.74
60375;BME280;70244;48.792;9.172;2024-02-15T08:12:02;97918.61;;;17.83;65.64
60375;BME280;70244;48.792;9.172;2024-02-15T08:14:33;97915.68;;;17.68;66.04
60375;BME280;70244;48.792;9.172;2024-02-15T08:17:03;97910.38;;;17.74;65.86
60375;BME280;70244;48.792;9.172;2024-02-15T08:19:34;97906.23;;;17.66;66.18
60375;BME280;70244;48.792;9.172;2024-02-15T08:22:06;97901.86;;;17.50;66.58
60375;BME280;70244;48.792;9.172;2024-02-15T08:24:35;97901.32;;;17.82;65.87
60375;BME280;70244;48.792;9.172;2024-02-15T08:27:06;97907.60;;;17.72;66.14
60375;BME280;70244;48.792;9.172;2024-02-15T08:29:37;97899.51;;;17.83;65.84
60375;BME280;70244;48.792;9.172;2024-02-15T08:32:08;97902.58;;;17.68;66.14
60375;BME280;70244;48.792;9.172;2024-02-15T08:34:38;97898.56;;;17.71;66.19
60375;BME280;70244;48.792;9.172;2024-02-15T08:37:09;97894.18;;;17.44;66.73
60375;BME280;70244;48.792;9.172;2024-02-15T08:39:40;97894.06;;;17.57;66.46
60375;BME280;70244;48.792;9.172;2024-02-15T08:42:10;97889.69;;;17.44;66.88
60375;BME280;70244;48.792;9.172;2024-02-15T08:44:41;97882.65;;;17.58;66.64
60375;BME280;70244;48.792;9.172;2024-02-15T08:47:12;97879.31;;;17.19;67.61
60375;BME280;70244;48.792;9.172;2024-02-15T08:49:43;97875.65;;;17.47;66.92
60375;BME280;70244;48.792;9.172;2024-02-15T08:52:13;97879.48;;;17.42;67.13
60375;BME280;70244;48.792;9.172;2024-02-15T08:54:44;97876.18;;;17.92;65.85
60375;BME280;70244;48.792;9.172;2024-02-15T08:57:15;97869.83;;;17.78;66.15
60375;BME280;70244;48.792;9.172;2024-02-15T08:59:46;97869.91;;;17.89;65.84
60375;BME280;70244;48.792;9.172;2024-02-15T09:02:16;97869.63;;;17.81;65.94
60375;BME280;70244;48.792;9.172;2024-02-15T09:04:47;97862.09;;;17.84;65.80
60375;BME280;70244;48.792;9.172;2024-02-15T09:07:18;97866.78;;;17.67;66.37
60375;BME280;70244;48.792;9.172;2024-02-15T09:09:48;97860.30;;;17.93;65.66
60375;BME280;70244;48.792;9.172;2024-02-15T09:12:19;97862.25;;;17.76;66.06
60375;BME280;70244;48.792;9.172;2024-02-15T09:14:50;97863.04;;;17.82;66.01
60375;BME280;70244;48.792;9.172;2024-02-15T09:17:20;97863.99;;;17.80;66.05
60375;BME280;70244;48.792;9.172;2024-02-15T09:19:51;97865.41;;;17.64;66.58
60375;BME280;70244;48.792;9.172;2024-02-15T09:22:22;97863.05;;;17.66;66.50
60375;BME280;70244;48.792;9.172;2024-02-15T09:24:52;97861.59;;;17.93;65.89
60375;BME280;70244;48.792;9.172;2024-02-15T09:27:23;97861.71;;;17.86;66.07
60375;BME280;70244;48.792;9.172;2024-02-15T09:29:54;97861.10;;;17.71;66.48
60375;BME280;70244;48.792;9.172;2024-02-15T09:32:25;97861.99;;;17.69;66.70
60375;BME280;70244;48.792;9.172;2024-02-15T09:34:55;97865.80;;;17.46;67.27
60375;BME280;70244;48.792;9.172;2024-02-15T09:37:26;97863.74;;;17.70;66.74
60375;BME280;70244;48.792;9.172;2024-02-15T09:39:57;97855.62;;;17.68;66.80
60375;BME280;70244;48.792;9.172;2024-02-15T09:42:27;97858.27;;;17.33;67.76
60375;BME280;70244;48.792;9.172;2024-02-15T09:44:59;97857.02;;;17.53;67.29
60375;BME280;70244;48.792;9.172;2024-02-15T09:47:34;97856.94;;;17.42;67.70
60375;BME280;70244;48.792;9.172;2024-02-15T09:50:00;97851.98;;;17.38;67.81
60375;BME280;70244;48.792;9.172;2024-02-15T09:52:31;97849.03;;;17.26;68.22
60375;BME280;70244;48.792;9.172;2024-02-15T09:55:02;97846.80;;;17.11;68.62
60375;BME280;70244;48.792;9.172;2024-02-15T09:57:32;97844.75;;;17.34;68.11
60375;BME280;70244;48.792;9.172;2024-02-15T10:00:03;97846.77;;;17.31;68.18
60375;BME280;70244;48.792;9.172;2024-02-15T10:02:34;97847.56;;;17.33;68.16
60375;BME280;70244;48.792;9.172;2024-02-15T10:05:04;97840.89;;;17.61;67.49
60375;BME280;70244;48.792;9.172;2024-02-15T10:07:34;97834.55;;;17.53;67.69
60375;BME280;70244;48.792;9.172;2024-02-15T10:12:37;97837.97;;;17.88;66.69
60375;BME280;70244;48.792;9.172;2024-02-15T10:15:07;97833.31;;;17.50;67.77
60375;BME280;70244;48.792;9.172;2024-02-15T10:17:37;97834.78;;;17.78;67.13
60375;BME280;70244;48.792;9.172;2024-02-15T10:20:08;97827.79;;;17.48;67.92
60375;BME280;70244;48.792;9.172;2024-02-15T10:22:39;97827.23;;;17.38;68.35
60375;BME280;70244;48.792;9.172;2024-02-15T10:25:11;97823.81;;;17.90;66.91
60375;BME280;70244;48.792;9.172;2024-02-15T10:27:41;97817.57;;;18.10;66.39
60375;BME280;70244;48.792;9.172;2024-02-15T10:30:15;97816.41;;;18.06;66.41
60375;BME280;70244;48.792;9.172;2024-02-15T10:32:42;97814.53;;;18.12;66.33
60375;BME280;70244;48.792;9.172;2024-02-15T10:35:20;97811.33;;;17.74;67.28
60375;BME280;70244;48.792;9.172;2024-02-15T10:37:43;97809.34;;;17.82;67.20
60375;BME280;70244;48.792;9.172;2024-02-15T10:40:17;97804.23;;;17.63;67.77
60375;BME280;70244;48.792;9.172;2024-02-15T10:42:47;97798.18;;;17.52;68.09
60375;BME280;70244;48.792;9.172;2024-02-15T10:45:15;97800.11;;;17.65;67.71
60375;BME280;70244;48.792;9.172;2024-02-15T10:47:46;97795.13;;;17.49;68.18
60375;BME280;70244;48.792;9.172;2024-02-15T10:50:16;97792.88;;;17.38;68.59
60375;BME280;70244;48.792;9.172;2024-02-15T10:52:54;97791.97;;;17.82;67.41
60375;BME280;70244;48.792;9.172;2024-02-15T10:55:26;97787.61;;;17.98;66.94
60375;BME280;70244;48.792;9.172;2024-02-15T10:57:51;97790.08;;;18.14;66.67
60375;BME280;70244;48.792;9.172;2024-02-15T11:00:21;97786.35;;;18.03;66.92
60375;BME280;70244;48.792;9.172;2024-02-15T11:02:58;97788.22;;;17.78;67.57
60375;BME280;70244;48.792;9.172;2024-02-15T11:05:21;97785.24;;;17.97;67.18
60375;BME280;70244;48.792;9.172;2024-02-15T11:07:51;97782.55;;;17.69;67.92
60375;BME280;70244;48.792;9.172;2024-02-15T11:10:22;97777.36;;;17.96;67.07
60375;BME280;70244;48.792;9.172;2024-02-15T11:12:53;97769.85;;;17.81;67.68
60375;BME280;70244;48.792;9.172;2024-02-15T11:17:54;97762.51;;;17.73;67.87
60375;BME280;70244;48.792;9.172;2024-02-15T11:22:56;97753.98;;;17.48;68.64
60375;BME280;70244;48.792;9.172;2024-02-15T11:25:32;97750.28;;;17.89;67.57
60375;BME280;70244;48.792;9.172;2024-02-15T11:27:57;97752.71;;;17.99;67.37
60375;BME280;70244;48.792;9.172;2024-02-15T11:30:32;97745.45;;;18.10;67.02
60375;BME280;70244;48.792;9.172;2024-02-15T11:32:58;97745.46;;;17.95;67.44
60375;BME280;70244;48.792;9.172;2024-02-15T11:35:29;97740.53;;;18.02;67.32
60375;BME280;70244;48.792;9.172;2024-02-15T11:38:01;97743.20;;;17.79;68.08
60375;BME280;70244;48.792;9.172;2024-02-15T11:43:01;97740.08;;;18.05;67.43
60375;BME280;70244;48.792;9.172;2024-02-15T11:45:32;97739.77;;;17.83;67.93
60375;BME280;70244;48.792;9.172;2024-02-15T11:48:03;97734.22;;;17.68;68.39
60375;BME280;70244;48.792;9.172;2024-02-15T11:50:34;97732.61;;;18.04;67.44
60375;BME280;70244;48.792;9.172;2024-02-15T11:53:05;97727.45;;;18.02;67.47
60375;BME280;70244;48.792;9.172;2024-02-15T11:55:35;97722.62;;;18.04;67.49
60375;BME280;70244;48.792;9.172;2024-02-15T11:58:07;97719.65;;;18.02;67.48
60375;BME280;70244;48.792;9.172;2024-02-15T12:00:37;97716.25;;;18.06;67.39
60375;BME280;70244;48.792;9.172;2024-02-15T12:03:07;97714.26;;;18.19;67.08
60375;BME280;70244;48.792;9.172;2024-02-15T12:05:37;97717.09;;;18.12;67.28
60375;BME280;70244;48.792;9.172;2024-02-15T12:08:10;97720.15;;;18.09;67.28
60375;BME280;70244;48.792;9.172;2024-02-15T12:10:39;97715.34;;;18.13;67.24
60375;BME280;70244;48.792;9.172;2024-02-15T12:13:09;97711.03;;;18.12;67.38
60375;BME280;70244;48.792;9.172;2024-02-15T12:15:40;97706.67;;;17.91;67.96
60375;BME280;70244;48.792;9.172;2024-02-15T12:18:14;97701.01;;;18.48;66.36
60375;BME280;70244;48.792;9.172;2024-02-15T12:20:41;97695.27;;;18.20;67.00
60375;BME280;70244;48.792;9.172;2024-02-15T12:23:13;97692.64;;;18.02;67.56
60375;BME280;70244;48.792;9.172;2024-02-15T12:25:43;97690.05;;;17.91;67.91
60375;BME280;70244;48.792;9.172;2024-02-15T12:28:14;97689.79;;;17.84;68.21
60375;BME280;70244;48.792;9.172;2024-02-15T12:30:44;97684.05;;;18.14;67.44
60375;BME280;70244;48.792;9.172;2024-02-15T12:33:15;97683.74;;;18.22;67.10
60375;BME280;70244;48.792;9.172;2024-02-15T12:35:46;97675.98;;;18.28;66.97
60375;BME280;70244;48.792;9.172;2024-02-15T12:38:17;97675.25;;;18.41;66.60
60375;BME280;70244;48.792;9.172;2024-02-15T12:40:47;97673.01;;;18.20;67.04
60375;BME280;70244;48.792;9.172;2024-02-15T12:43:18;97668.01;;;18.34;66.83
60375;BME280;70244;48.792;9.172;2024-02-15T12:45:48;97664.94;;;18.75;65.66
60375;BME280;70244;48.792;9.172;2024-02-15T12:48:19;97659.00;;;18.92;65.16
60375;BME280;70244;48.792;9.172;2024-02-15T12:50:50;97654.27;;;18.60;65.88
60375;BME280;70244;48.792;9.172;2024-02-15T12:53:21;97649.52;;;18.45;66.41
60375;BME280;70244;48.792;9.172;2024-02-15T12:55:53;97646.65;;;18.46;66.27
60375;BME280;70244;48.792;9.172;2024-02-15T12:58:22;97639.27;;;18.20;67.00
60375;BME280;70244;48.792;9.172;2024-02-15T13:00:55;97635.38;;;18.48;66.31
60375;BME280;70244;48.792;9.172;2024-02-15T13:03:23;97635.52;;;18.17;67.13
60375;BME280;70244;48.792;9.172;2024-02-15T13:05:54;97629.59;;;18.41;66.46
60375;BME280;70244;48.792;9.172;2024-02-15T13:08:25;97629.23;;;18.57;66.06
60375;BME280;70244;48.792;9.172;2024-02-15T13:10:55;97624.11;;;18.53;66.18
60375;BME280;70244;48.792;9.172;2024-02-15T13:13:26;97621.39;;;18.72;65.52
60375;BME280;70244;48.792;9.172;2024-02-15T13:15:57;97615.25;;;18.81;65.37
60375;BME280;70244;48.792;9.172;2024-02-15T13:18:27;97613.17;;;18.52;66.09
60375;BME280;70244;48.792;9.172;2024-02-15T13:20:58;97612.11;;;18.79;65.48
60375;BME280;70244;48.792;9.172;2024-02-15T13:23:29;97608.95;;;19.11;64.67
60375;BME280;70244;48.792;9.172;2024-02-15T13:25:59;97604.56;;;18.51;66.11
60375;BME280;70244;48.792;9.172;2024-02-15T13:28:30;97605.42;;;19.11;64.64
60375;BME280;70244;48.792;9.172;2024-02-15T13:31:01;97602.42;;;18.69;65.55
60375;BME280;70244;48.792;9.172;2024-02-15T13:33:31;97600.61;;;18.64;65.73
60375;BME280;70244;48.792;9.172;2024-02-15T13:36:03;97597.89;;;18.66;65.67
60375;BME280;70244;48.792;9.172;2024-02-15T13:38:33;97597.47;;;18.88;65.14
60375;BME280;70244;48.792;9.172;2024-02-15T13:41:04;97596.45;;;19.23;64.19
60375;BME280;70244;48.792;9.172;2024-02-15T13:43:34;97593.08;;;19.12;64.38
60375;BME280;70244;48.792;9.172;2024-02-15T13:46:05;97589.97;;;19.13;64.32
60375;BME280;70244;48.792;9.172;2024-02-15T13:48:36;97586.71;;;18.85;65.04
60375;BME280;70244;48.792;9.172;2024-02-15T13:51:06;97584.07;;;18.96;64.79
60375;BME280;70244;48.792;9.172;2024-02-15T13:53:37;97582.91;;;18.75;65.38
60375;BME280;70244;48.792;9.172;2024-02-15T13:56:08;97581.17;;;18.84;65.04
60375;BME280;70244;48.792;9.172;2024-02-15T13:58:38;97578.98;;;18.72;65.40
60375;BME280;70244;48.792;9.172;2024-02-15T14:01:09;97580.26;;;18.44;66.18
60375;BME280;70244;48.792;9.172;2024-02-15T14:03:40;97578.64;;;18.54;65.96
60375;BME280;70244;48.792;9.172;2024-02-15T14:06:10;97574.83;;;18.89;65.19
60375;BME280;70244;48.792;9.172;2024-02-15T14:08:41;97574.38;;;19.30;64.04
60375;BME280;70244;48.792;9.172;2024-02-15T14:11:12;97566.47;;;18.62;65.71
60375;BME280;70244;48.792;9.172;2024-02-15T14:13:43;97564.02;;;18.80;65.21
60375;BME280;70244;48.792;9.172;2024-02-15T14:16:13;97557.46;;;18.70;65.35
60375;BME280;70244;48.792;9.172;2024-02-15T14:18:44;97549.17;;;18.49;65.94
60375;BME280;70244;48.792;9.172;2024-02-15T14:21:15;97545.08;;;18.54;65.76
60375;BME280;70244;48.792;9.172;2024-02-15T14:23:45;97547.65;;;18.41;66.23
60375;BME280;70244;48.792;9.172;2024-02-15T14:26:16;97546.93;;;18.54;65.80
60375;BME280;70244;48.792;9.172;2024-02-15T14:28:47;97543.70;;;18.53;65.89
60375;BME280;70244;48.792;9.172;2024-02-15T14:31:18;97542.74;;;18.65;65.51
60375;BME280;70244;48.792;9.172;2024-02-15T14:33:48;97543.43;;;18.66;65.56
60375;BME280;70244;48.792;9.172;2024-02-15T14:36:19;97538.98;;;18.45;66.06
60375;BME280;70244;48.792;9.172;2024-02-15T14:38:49;97537.82;;;18.82;64.98
60375;BME280;70244;48.792;9.172;2024-02-15T14:41:20;97540.74;;;18.64;65.44
60375;BME280;70244;48.792;9.172;2024-02-15T14:43:51;97539.33;;;18.72;65.22
60375;BME280;70244;48.792;9.172;2024-02-15T14:46:22;97537.34;;;18.86;64.88
60375;BME280;70244;48.792;9.172;2024-02-15T14:48:52;97530.53;;;18.61;65.47
60375;BME280;70244;48.792;9.172;2024-02-15T14:51:23;97526.21;;;18.84;64.93
60375;BME280;70244;48.792;9.172;2024-02-15T14:53:54;97526.82;;;18.79;65.22
60375;BME280;70244;48.792;9.172;2024-02-15T14:56:24;97522.29;;;18.86;64.73
60375;BME280;70244;48.792;9.172;2024-02-15T14:58:55;97520.44;;;19.49;63.15
60375;BME280;70244;48.792;9.172;2024-02-15T15:01:26;97520.52;;;19.16;63.95
60375;BME280;70244;48.792;9.172;2024-02-15T15:03:56;97522.67;;;18.82;64.83
60375;BME280;70244;48.792;9.172;2024-02-15T15:06:27;97526.09;;;18.39;66.11
60375;BME280;70244;48.792;9.172;2024-02-15T15:08:58;97533.24;;;18.40;66.22
60375;BME280;70244;48.792;9.172;2024-02-15T15:11:28;97536.10;;;18.37;66.20
60375;BME280;70244;48.792;9.172;2024-02-15T15:13:59;97539.95;;;18.64;65.52
60375;BME280;70244;48.792;9.172;2024-02-15T15:16:30;97542.44;;;18.92;64.86
60375;BME280;70244;48.792;9.172;2024-02-15T15:19:00;97538.63;;;18.58;65.65
60375;BME280;70244;48.792;9.172;2024-02-15T15:21:31;97540.22;;;18.94;64.88
60375;BME280;70244;48.792;9.172;2024-02-15T15:24:02;97534.53;;;18.65;65.36
60375;BME280;70244;48.792;9.172;2024-02-15T15:26:32;97535.57;;;18.90;64.75
60375;BME280;70244;48.792;9.172;2024-02-15T15:29:03;97535.86;;;19.42;63.51
60375;BME280;70244;48.792;9.172;2024-02-15T15:31:34;97533.42;;;18.49;65.76
60375;BME280;70244;48.792;9.172;2024-02-15T15:34:05;97529.85;;;18.47;65.95
60375;BME280;70244;48.792;9.172;2024-02-15T15:36:35;97526.86;;;18.49;65.72
60375;BME280;70244;48.792;9.172;2024-02-15T15:39:06;97526.28;;;19.57;63.11
60375;BME280;70244;48.792;9.172;2024-02-15T15:41:37;97522.13;;;19.28;63.53
60375;BME280;70244;48.792;9.172;2024-02-15T15:44:07;97523.19;;;19.63;62.90
60375;BME280;70244;48.792;9.172;2024-02-15T15:46:38;97521.56;;;19.73;62.43
60375;BME280;70244;48.792;9.172;2024-02-15T15:49:09;97516.96;;;18.95;64.39
60375;BME280;70244;48.792;9.172;2024-02-15T15:51:41;97515.12;;;18.09;66.75
60375;BME280;70244;48.792;9.172;2024-02-15T15:54:10;97512.49;;;18.65;65.37
60375;BME280;70244;48.792;9.172;2024-02-15T15:56:41;97508.73;;;19.11;64.16
60375;BME280;70244;48.792;9.172;2024-02-15T15:59:11;97506.66;;;19.45;63.32
60375;BME280;70244;48.792;9.172;2024-02-15T16:01:47;97505.99;;;19.19;63.84
60375;BME280;70244;48.792;9.172;2024-02-15T16:04:13;97504.00;;;18.87;64.69
60375;BME280;70244;48.792;9.172;2024-02-15T16:06:43;97504.66;;;19.12;64.06
60375;BME280;70244;48.792;9.172;2024-02-15T16:09:14;97502.93;;;19.40;63.25
60375;BME280;70244;48.792;9.172;2024-02-15T16:11:45;97499.56;;;18.65;65.21
60375;BME280;70244;48.792;9.172;2024-02-15T16:14:15;97491.68;;;18.72;64.95
60375;BME280;70244;48.792;9.172;2024-02-15T16:16:46;97487.51;;;18.47;65.65
60375;BME280;70244;48.792;9.172;2024-02-15T16:19:17;97490.07;;;18.69;65.10
60375;BME280;70244;48.792;9.172;2024-02-15T16:21:48;97488.39;;;18.83;64.73
60375;BME280;70244;48.792;9.172;2024-02-15T16:24:18;97482.87;;;18.90;64.57
60375;BME280;70244;48.792;9.172;2024-02-15T16:26:49;97483.23;;;19.09;64.09
60375;BME280;70244;48.792;9.172;2024-02-15T16:29:20;97480.78;;;19.01;64.20
60375;BME280;70244;48.792;9.172;2024-02-15T16:31:50;97481.00;;;19.18;63.83
60375;BME280;70244;48.792;9.172;2024-02-15T16:34:21;97476.69;;;19.15;63.77
60375;BME280;70244;48.792;9.172;2024-02-15T16:36:52;97474.88;;;19.23;63.61
60375;BME280;70244;48.792;9.172;2024-02-15T16:39:22;97472.23;;;19.38;63.21
60375;BME280;70244;48.792;9.172;2024-02-15T16:41:53;97470.26;;;19.25;63.55
60375;BME280;70244;48.792;9.172;2024-02-15T16:44:25;97470.04;;;18.84;64.41
60375;BME280;70244;48.792;9.172;2024-02-15T16:46:54;97471.61;;;19.02;64.14
60375;BME280;70244;48.792;9.172;2024-02-15T16:49:25;97474.00;;;18.93;64.30
60375;BME280;70244;48.792;9.172;2024-02-15T16:51:56;97475.89;;;18.78;64.73
60375;BME280;70244;48.792;9.172;2024-02-15T16:54:26;97476.09;;;19.05;64.11
60375;BME280;70244;48.792;9.172;2024-02-15T16:56:57;97472.50;;;18.94;64.30
60375;BME280;70244;48.792;9.172;2024-02-15T16:59:28;97475.20;;;19.19;63.67
60375;BME280;70244;48.792;9.172;2024-02-15T17:01:58;97474.33;;;18.92;64.23
60375;BME280;70244;48.792;9.172;2024-02-15T17:04:29;97469.50;;;18.80;64.63
60375;BME280;70244;48.792;9.172;2024-02-15T17:07:00;97472.29;;;18.35;65.80
60375;BME280;70244;48.792;9.172;2024-02-15T17:09:31;97471.33;;;18.36;65.86
60375;BME280;70244;48.792;9.172;2024-02-15T17:12:01;97470.13;;;18.57;65.23
60375;BME280;70244;48.792;9.172;2024-02-15T17:14:32;97475.01;;;18.84;64.57
60375;BME280;70244;48.792;9.172;2024-02-15T17:17:03;97476.21;;;18.75;64.84
60375;BME280;70244;48.792;9.172;2024-02-15T17:19:33;97475.84;;;18.82;64.62
60375;BME280;70244;48.792;9.172;2024-02-15T17:22:04;97477.72;;;18.92;64.40
60375;BME280;70244;48.792;9.172;2024-02-15T17:24:35;97478.60;;;19.01;64.15
60375;BME280;70244;48.792;9.172;2024-02-15T17:27:05;97478.63;;;19.02;64.13
60375;BME280;70244;48.792;9.172;2024-02-15T17:29:36;97469.60;;;18.81;64.59
60375;BME280;70244;48.792;9.172;2024-02-15T17:32:07;97474.45;;;18.94;64.24
60375;BME280;70244;48.792;9.172;2024-02-15T17:34:37;97473.34;;;18.92;64.34
60375;BME280;70244;48.792;9.172;2024-02-15T17:37:08;97473.43;;;18.94;64.25
60375;BME280;70244;48.792;9.172;2024-02-15T17:39:39;97472.15;;;18.57;65.14
60375;BME280;70244;48.792;9.172;2024-02-15T17:42:09;97470.26;;;18.58;65.18
60375;BME280;70244;48.792;9.172;2024-02-15T17:44:40;97474.13;;;18.67;64.98
60375;BME280;70244;48.792;9.172;2024-02-15T17:47:11;97477.08;;;18.50;65.43
60375;BME280;70244;48.792;9.172;2024-02-15T17:49:42;97478.28;;;18.52;65.33
60375;BME280;70244;48.792;9.172;2024-02-15T17:52:12;97478.46;;;18.31;65.89
60375;BME280;70244;48.792;9.172;2024-02-15T17:54:43;97481.22;;;18.80;64.62
60375;BME280;70244;48.792;9.172;2024-02-15T17:57:14;97482.99;;;18.71;64.73
60375;BME280;70244;48.792;9.172;2024-02-15T17:59:44;97481.46;;;18.89;64.32
60375;BME280;70244;48.792;9.172;2024-02-15T18:02:15;97488.10;;;19.14;63.76
60375;BME280;70244;48.792;9.172;2024-02-15T18:04:46;97491.01;;;19.11;63.74
60375;BME280;70244;48.792;9.172;2024-02-15T18:07:16;97494.56;;;19.04;63.94
60375;BME280;70244;48.792;9.172;2024-02-15T18:09:47;97494.99;;;18.89;64.23
60375;BME280;70244;48.792;9.172;2024-02-15T18:12:18;97496.47;;;18.96;64.16
60375;BME280;70244;48.792;9.172;2024-02-15T18:14:49;97502.34;;;19.19;63.51
60375;BME280;70244;48.792;9.172;2024-02-15T18:17:19;97500.80;;;18.83;64.47
60375;BME280;70244;48.792;9.172;2024-02-15T18:19:50;97503.56;;;19.02;63.98
60375;BME280;70244;48.792;9.172;2024-02-15T18:22:21;97497.66;;;19.11;63.73
60375;BME280;70244;48.792;9.172;2024-02-15T18:24:51;97500.06;;;18.62;64.93
60375;BME280;70244;48.792;9.172;2024-02-15T18:27:22;97498.46;;;19.23;63.28
60375;BME280;70244;48.792;9.172;2024-02-15T18:29:53;97496.74;;;18.95;64.04
60375;BME280;70244;48.792;9.172;2024-02-15T18:32:23;97495.59;;;19.06;63.75
60375;BME280;70244;48.792;9.172;2024-02-15T18:34:54;97487.35;;;18.76;64.57
60375;BME280;70244;48.792;9.172;2024-02-15T18:37:25;97485.25;;;18.92;64.15
60375;BME280;70244;48.792;9.172;2024-02-15T18:39:55;97486.35;;;18.96;64.12
60375;BME280;70244;48.792;9.172;2024-02-15T18:42:26;97480.33;;;18.80;64.46